Terminal Aerodrome Forecast
Issued by NWS

Home | Current Version | Previous Version | Text Only | Print | Product List | Glossary On
Versions: 1 2 3 4 5 6 7 8 9 10 11 12 13 14 15 16 17 18 19
998
FTUS45 KTFX 232038 AAA
TAFCTB
TAF AMD
KCTB 232038Z 2321/2418 24025KT P6SM SCT150
     FM232300 24028KT P6SM SCT040 BKN120
     FM240900 25018KT P6SM SCT060 BKN120=

USA.gov is the U.S. government's official web portal to all federal, state and local government web resources and services.